createdAt,value
2018-10-18T00:00:49.250Z,8.33
2018-10-18T00:03:16.521Z,8.27
2018-10-18T00:05:43.657Z,8.19
2018-10-18T00:08:10.844Z,8.12
2018-10-18T00:10:38.103Z,8.08
2018-10-18T00:13:05.276Z,8.03
2018-10-18T00:15:32.466Z,8.01
2018-10-18T00:17:59.682Z,8.05
2018-10-18T00:20:26.853Z,8.05
2018-10-18T00:22:54.009Z,8.04
2018-10-18T00:25:21.397Z,7.99
2018-10-18T00:27:48.571Z,7.93
2018-10-18T00:30:15.964Z,7.89
2018-10-18T00:32:43.950Z,7.90
2018-10-18T00:35:11.488Z,7.85
2018-10-18T00:37:39.052Z,7.81
2018-10-18T00:40:06.954Z,7.82
2018-10-18T00:42:34.140Z,7.79
2018-10-18T00:45:01.302Z,7.76
2018-10-18T00:47:28.495Z,7.79
2018-10-18T00:49:55.702Z,7.81
2018-10-18T00:52:23.890Z,7.76
2018-10-18T00:54:51.164Z,7.71
2018-10-18T00:57:18.356Z,7.71
2018-10-18T00:59:45.520Z,7.67
2018-10-18T01:02:12.891Z,7.64
2018-10-18T01:04:40.018Z,7.65
2018-10-18T01:07:07.190Z,7.63
2018-10-18T01:09:34.474Z,7.67
2018-10-18T01:12:01.675Z,7.66
2018-10-18T01:14:28.839Z,7.62
2018-10-18T01:17:01.891Z,7.56
2018-10-18T01:19:29.402Z,7.59
2018-10-18T01:21:56.552Z,7.67
2018-10-18T01:24:23.817Z,7.68
2018-10-18T01:26:51.019Z,7.64
2018-10-18T01:29:18.187Z,7.64
2018-10-18T01:31:45.514Z,7.64
2018-10-18T01:34:13.006Z,7.57
2018-10-18T01:36:40.167Z,7.55
2018-10-18T01:39:07.635Z,7.61
2018-10-18T01:41:34.805Z,7.62
2018-10-18T01:44:02.021Z,7.56
2018-10-18T01:46:29.226Z,7.62
2018-10-18T01:48:56.381Z,7.64
2018-10-18T01:51:23.529Z,7.61
2018-10-18T01:53:50.737Z,7.52
2018-10-18T01:56:17.902Z,7.51
2018-10-18T01:58:45.042Z,7.45
2018-10-18T02:01:12.834Z,7.39
2018-10-18T02:03:39.985Z,7.35
2018-10-18T02:06:07.368Z,7.34
2018-10-18T02:08:39.938Z,7.32
2018-10-18T02:11:07.442Z,7.25
2018-10-18T02:13:34.675Z,7.20
2018-10-18T02:16:01.869Z,7.15
2018-10-18T02:18:29.025Z,7.14
2018-10-18T02:20:56.255Z,7.14
2018-10-18T02:23:23.557Z,7.19
2018-10-18T02:25:50.745Z,7.20
2018-10-18T02:28:17.901Z,7.14
2018-10-18T02:30:45.106Z,7.13
2018-10-18T02:33:12.272Z,7.12
2018-10-18T02:35:39.437Z,7.06
2018-10-18T02:38:06.821Z,7.08
2018-10-18T02:40:34.541Z,7.14
2018-10-18T02:43:01.727Z,7.11
2018-10-18T02:45:29.316Z,7.29
2018-10-18T02:47:56.479Z,7.28
2018-10-18T02:50:23.675Z,7.28
2018-10-18T02:52:51.056Z,7.20
2018-10-18T02:55:18.205Z,7.11
2018-10-18T02:57:45.383Z,7.09
2018-10-18T03:00:12.661Z,7.10
2018-10-18T03:02:39.815Z,7.09
2018-10-18T03:05:07.133Z,7.19
2018-10-18T03:07:34.350Z,7.22
2018-10-18T03:10:01.578Z,7.16
2018-10-18T03:12:28.787Z,7.14
2018-10-18T03:14:56.084Z,7.05
2018-10-18T03:17:23.261Z,6.98
2018-10-18T03:19:50.871Z,6.90
2018-10-18T03:22:18.120Z,6.93
2018-10-18T03:24:45.301Z,6.97
2018-10-18T03:27:12.465Z,6.94
2018-10-18T03:29:39.669Z,6.83
2018-10-18T03:32:06.914Z,6.84
2018-10-18T03:34:34.085Z,7.06
2018-10-18T03:37:01.382Z,7.14
2018-10-18T03:39:28.581Z,7.03
2018-10-18T03:41:55.834Z,7.07
2018-10-18T03:44:23.854Z,6.95
2018-10-18T03:46:51.025Z,6.87
2018-10-18T03:49:18.205Z,6.90
2018-10-18T03:51:45.505Z,6.82
2018-10-18T03:54:12.737Z,6.63
2018-10-18T03:56:39.842Z,6.53
2018-10-18T03:59:07.470Z,6.61
2018-10-18T04:01:34.682Z,6.66
2018-10-18T04:04:01.865Z,6.61
2018-10-18T04:06:29.064Z,6.51
2018-10-18T04:08:56.216Z,6.46
2018-10-18T04:11:23.419Z,6.42
2018-10-18T04:13:50.666Z,6.38
2018-10-18T04:16:17.898Z,6.43
2018-10-18T04:18:45.046Z,6.33
2018-10-18T04:21:12.374Z,6.44
2018-10-18T04:23:39.562Z,6.34
2018-10-18T04:26:06.726Z,6.27
2018-10-18T04:28:33.943Z,6.22
2018-10-18T04:31:02.315Z,6.24
2018-10-18T04:33:29.541Z,6.23
2018-10-18T04:35:56.832Z,6.26
2018-10-18T04:38:24.013Z,6.29
2018-10-18T04:40:51.239Z,6.29
2018-10-18T04:43:18.532Z,6.38
2018-10-18T04:45:45.701Z,6.32
2018-10-18T04:48:13.293Z,6.24
2018-10-18T04:50:40.665Z,6.26
2018-10-18T04:53:08.009Z,6.20
2018-10-18T04:55:35.198Z,6.17
2018-10-18T04:58:02.434Z,6.15
2018-10-18T05:00:29.648Z,6.14
2018-10-18T05:02:56.953Z,6.16
2018-10-18T05:05:36.623Z,6.14
2018-10-18T05:08:03.902Z,6.08
2018-10-18T05:10:31.089Z,6.13
2018-10-18T05:12:58.366Z,6.31
2018-10-18T05:15:25.616Z,6.33
2018-10-18T05:17:52.836Z,6.25
2018-10-18T05:20:20.126Z,6.23
2018-10-18T05:22:47.314Z,6.23
2018-10-18T05:25:14.544Z,6.13
2018-10-18T05:27:41.796Z,6.15
2018-10-18T05:30:09.000Z,6.17
2018-10-18T05:32:36.127Z,6.11
2018-10-18T05:35:03.280Z,6.05
2018-10-18T05:37:30.447Z,6.16
2018-10-18T05:39:57.545Z,6.36
2018-10-18T05:42:24.679Z,6.29
2018-10-18T05:44:51.831Z,6.23
2018-10-18T05:47:19.298Z,6.18
2018-10-18T05:49:46.421Z,6.18
2018-10-18T05:52:13.508Z,6.18
2018-10-18T05:54:40.613Z,6.09
2018-10-18T05:57:07.783Z,6.06
2018-10-18T05:59:34.877Z,6.19
2018-10-18T06:02:01.972Z,6.18
2018-10-18T06:04:29.168Z,6.26
2018-10-18T06:06:56.656Z,6.39
2018-10-18T06:09:28.096Z,6.44
2018-10-18T06:11:55.262Z,6.48
2018-10-18T06:14:22.462Z,6.44
2018-10-18T06:16:49.572Z,6.47
2018-10-18T06:19:16.834Z,6.54
2018-10-18T06:21:44.371Z,6.54
2018-10-18T06:24:11.484Z,6.50
2018-10-18T06:26:38.651Z,6.54
2018-10-18T06:29:05.802Z,6.66
2018-10-18T06:31:32.905Z,6.68
2018-10-18T06:34:00.034Z,6.78
2018-10-18T06:36:27.143Z,6.75
2018-10-18T06:38:54.247Z,6.84
2018-10-18T06:41:21.444Z,7.09
2018-10-18T06:43:48.544Z,7.21
2018-10-18T06:46:15.703Z,7.33
2018-10-18T06:48:42.944Z,7.36
2018-10-18T06:51:10.483Z,7.57
2018-10-18T06:53:37.911Z,7.64
2018-10-18T06:56:05.096Z,7.64
2018-10-18T06:58:32.194Z,7.79
2018-10-18T07:00:59.295Z,7.93
2018-10-18T07:03:26.434Z,8.12
2018-10-18T07:05:53.530Z,8.22
2018-10-18T07:08:20.600Z,8.23
2018-10-18T07:10:47.804Z,8.55
2018-10-18T07:13:14.951Z,8.73
2018-10-18T07:15:42.034Z,8.80
2018-10-18T07:18:09.195Z,9.05
2018-10-18T07:20:36.263Z,9.38
2018-10-18T07:23:03.403Z,9.73
2018-10-18T07:25:30.604Z,9.93
2018-10-18T07:27:57.712Z,10.27
2018-10-18T07:30:24.792Z,10.64
2018-10-18T07:32:51.960Z,10.97
2018-10-18T07:35:19.100Z,11.15
2018-10-18T07:37:46.189Z,11.40
2018-10-18T07:40:14.627Z,11.72
2018-10-18T07:42:41.745Z,11.77
2018-10-18T07:45:09.490Z,11.82
2018-10-18T07:47:36.692Z,11.46
2018-10-18T07:50:04.113Z,11.31
2018-10-18T07:52:31.215Z,11.09
2018-10-18T07:54:58.357Z,11.07
2018-10-18T07:57:25.463Z,11.26
2018-10-18T07:59:52.587Z,11.39
2018-10-18T08:02:19.739Z,11.43
2018-10-18T08:04:46.833Z,11.38
2018-10-18T08:07:14.049Z,11.44
2018-10-18T08:09:41.179Z,11.81
2018-10-18T08:12:08.269Z,12.09
2018-10-18T08:14:35.366Z,12.43
2018-10-18T08:17:02.595Z,12.57
2018-10-18T08:19:29.640Z,12.61
2018-10-18T08:21:56.756Z,12.80
2018-10-18T08:24:24.112Z,12.75
2018-10-18T08:26:51.196Z,12.83
2018-10-18T08:29:18.346Z,12.95
2018-10-18T08:31:45.711Z,12.96
2018-10-18T08:34:12.897Z,13.04
2018-10-18T08:36:40.061Z,13.18
2018-10-18T08:39:08.770Z,13.25
2018-10-18T08:41:35.984Z,13.24
2018-10-18T08:44:03.205Z,13.32
2018-10-18T08:46:30.433Z,13.49
2018-10-18T08:48:57.660Z,13.50
2018-10-18T08:51:24.799Z,13.64
2018-10-18T08:53:51.975Z,13.72
2018-10-18T08:56:19.172Z,13.79
2018-10-18T08:58:46.313Z,13.91
2018-10-18T09:01:13.620Z,14.07
2018-10-18T09:03:40.714Z,14.21
2018-10-18T09:06:07.861Z,14.37
2018-10-18T09:08:35.062Z,14.53
2018-10-18T09:11:02.221Z,14.67
2018-10-18T09:13:29.347Z,14.79
2018-10-18T09:15:56.649Z,15.08
2018-10-18T09:18:23.769Z,15.38
2018-10-18T09:20:50.924Z,15.59
2018-10-18T09:23:18.097Z,15.89
2018-10-18T09:25:45.227Z,16.18
2018-10-18T09:28:12.383Z,16.56
2018-10-18T09:30:39.580Z,16.57
2018-10-18T09:33:06.820Z,16.90
2018-10-18T09:35:33.967Z,17.09
2018-10-18T09:38:01.216Z,17.29
2018-10-18T09:40:28.365Z,17.51
2018-10-18T09:42:58.553Z,17.56
2018-10-18T09:45:26.000Z,17.77
2018-10-18T09:47:53.124Z,17.77
2018-10-18T09:50:20.353Z,18.06
2018-10-18T09:52:47.558Z,18.19
2018-10-18T09:55:14.765Z,18.18
2018-10-18T09:57:41.908Z,18.30
2018-10-18T10:00:14.804Z,18.60
2018-10-18T10:02:47.581Z,18.59
2018-10-18T10:05:14.865Z,18.64
2018-10-18T10:07:42.010Z,18.68
2018-10-18T10:10:09.193Z,18.60
2018-10-18T10:12:36.362Z,18.80
2018-10-18T10:15:04.247Z,18.66
2018-10-18T10:17:31.451Z,18.76
2018-10-18T10:19:58.613Z,18.72
2018-10-18T10:22:25.758Z,19.01
2018-10-18T10:24:52.944Z,19.04
2018-10-18T10:27:20.148Z,19.30
2018-10-18T10:29:47.292Z,19.46
2018-10-18T10:32:14.460Z,19.53
2018-10-18T10:34:41.664Z,19.44
2018-10-18T10:37:08.857Z,19.24
2018-10-18T10:39:36.030Z,19.13
2018-10-18T10:42:03.326Z,18.86
2018-10-18T10:44:30.508Z,18.71
2018-10-18T10:46:57.645Z,18.39
2018-10-18T10:49:24.933Z,18.29
2018-10-18T10:51:52.182Z,18.33
2018-10-18T10:54:19.353Z,18.41
2018-10-18T10:56:46.554Z,18.34
2018-10-18T10:59:15.684Z,18.21
2018-10-18T11:01:42.799Z,18.41
2018-10-18T11:04:10.037Z,18.46
2018-10-18T11:06:37.218Z,18.38
2018-10-18T11:09:06.544Z,18.46
2018-10-18T11:11:33.783Z,18.41
2018-10-18T11:14:00.929Z,18.41
2018-10-18T11:16:28.050Z,17.78
2018-10-18T11:18:55.290Z,17.79
2018-10-18T11:21:22.466Z,17.46
2018-10-18T11:23:49.585Z,17.40
2018-10-18T11:26:16.810Z,17.22
2018-10-18T11:28:43.884Z,17.15
2018-10-18T11:31:11.021Z,17.28
2018-10-18T11:33:38.320Z,17.63
2018-10-18T11:36:05.502Z,17.29
2018-10-18T11:38:33.137Z,17.12
2018-10-18T11:41:00.583Z,17.16
2018-10-18T11:43:27.764Z,16.88
2018-10-18T11:45:55.553Z,16.92
2018-10-18T11:48:22.882Z,16.81
2018-10-18T11:50:50.015Z,16.67
2018-10-18T11:53:17.190Z,16.55
2018-10-18T11:55:44.400Z,16.70
2018-10-18T11:58:12.175Z,16.78
2018-10-18T12:00:39.532Z,16.80
2018-10-18T12:03:06.722Z,16.77
2018-10-18T12:05:33.862Z,16.64
2018-10-18T12:08:01.066Z,16.86
2018-10-18T12:10:28.233Z,16.84
2018-10-18T12:12:55.349Z,16.78
2018-10-18T12:15:22.534Z,16.87
2018-10-18T12:17:49.714Z,16.88
2018-10-18T12:20:17.443Z,16.82
2018-10-18T12:22:44.573Z,16.58
2018-10-18T12:25:12.398Z,16.39
2018-10-18T12:27:39.615Z,16.31
2018-10-18T12:30:07.409Z,16.32
2018-10-18T12:32:34.726Z,16.41
2018-10-18T12:35:01.883Z,16.25
2018-10-18T12:37:29.006Z,16.23
2018-10-18T12:39:56.258Z,16.06
2018-10-18T12:42:23.448Z,16.03
2018-10-18T12:44:50.689Z,15.75
2018-10-18T12:47:17.868Z,15.82
2018-10-18T12:49:44.987Z,15.87
2018-10-18T12:52:13.352Z,15.76
2018-10-18T12:54:40.735Z,15.72
2018-10-18T12:57:09.513Z,15.59
2018-10-18T12:59:36.737Z,15.36
2018-10-18T13:02:04.048Z,15.44
2018-10-18T13:04:31.141Z,15.55
2018-10-18T13:06:58.469Z,15.81
2018-10-18T13:09:26.284Z,15.97
2018-10-18T13:11:53.503Z,15.99
2018-10-18T13:14:20.596Z,15.98
2018-10-18T13:16:47.837Z,16.01
2018-10-18T13:19:15.003Z,16.02
2018-10-18T13:21:42.158Z,15.91
2018-10-18T13:24:09.364Z,15.79
2018-10-18T13:26:36.983Z,16.01
2018-10-18T13:29:04.486Z,16.06
2018-10-18T13:31:31.767Z,16.13
2018-10-18T13:33:58.928Z,16.00
2018-10-18T13:36:26.054Z,15.90
2018-10-18T13:38:53.386Z,15.89
2018-10-18T13:41:20.500Z,15.81
2018-10-18T13:43:47.628Z,15.50
2018-10-18T13:46:14.851Z,15.45
2018-10-18T13:48:42.092Z,15.27
2018-10-18T13:51:09.295Z,15.33
2018-10-18T13:53:39.405Z,15.27
2018-10-18T13:56:06.775Z,15.37
2018-10-18T13:58:33.853Z,15.33
2018-10-18T14:01:01.026Z,15.27
2018-10-18T14:03:28.194Z,15.27
2018-10-18T14:05:55.342Z,15.29
2018-10-18T14:08:22.665Z,15.27
2018-10-18T14:10:49.757Z,15.24
2018-10-18T14:13:16.872Z,15.22
2018-10-18T14:15:44.073Z,15.09
2018-10-18T14:18:11.350Z,15.07
2018-10-18T14:20:38.497Z,15.13
2018-10-18T14:23:05.709Z,15.22
2018-10-18T14:25:32.962Z,15.29
2018-10-18T14:28:00.120Z,15.32
2018-10-18T14:30:28.532Z,15.31
2018-10-18T14:32:55.629Z,15.18
2018-10-18T14:35:22.805Z,15.23
2018-10-18T14:37:49.992Z,15.30
2018-10-18T14:40:17.145Z,15.27
2018-10-18T14:42:44.298Z,15.24
2018-10-18T14:45:11.560Z,15.18
2018-10-18T14:47:38.843Z,15.13
2018-10-18T14:50:07.802Z,15.26
2018-10-18T14:52:35.021Z,15.28
2018-10-18T14:55:02.166Z,15.24
2018-10-18T14:57:29.445Z,15.16
2018-10-18T15:00:03.630Z,15.21
2018-10-18T15:02:30.821Z,15.28
2018-10-18T15:04:58.146Z,15.32
2018-10-18T15:07:25.353Z,15.21
2018-10-18T15:09:52.562Z,15.23
2018-10-18T15:12:19.705Z,15.14
2018-10-18T15:14:46.976Z,15.23
2018-10-18T15:17:14.196Z,15.24
2018-10-18T15:19:41.349Z,15.21
2018-10-18T15:22:08.553Z,15.14
2018-10-18T15:24:35.680Z,15.22
2018-10-18T15:27:02.980Z,15.15
2018-10-18T15:29:30.033Z,15.16
2018-10-18T15:31:57.264Z,15.24
2018-10-18T15:34:24.348Z,15.14
2018-10-18T15:36:51.536Z,15.15
2018-10-18T15:39:18.893Z,15.14
2018-10-18T15:41:45.904Z,15.17
2018-10-18T15:44:13.263Z,15.17
2018-10-18T15:46:40.368Z,15.19
2018-10-18T15:49:07.968Z,15.15
2018-10-18T15:51:35.648Z,15.18
2018-10-18T15:54:02.856Z,15.13
2018-10-18T15:56:30.049Z,15.02
2018-10-18T15:58:57.398Z,15.07
2018-10-18T16:01:24.542Z,15.07
2018-10-18T16:03:51.681Z,14.98
2018-10-18T16:06:18.944Z,15.10
2018-10-18T16:08:46.203Z,15.08
2018-10-18T16:11:13.404Z,15.08
2018-10-18T16:13:40.533Z,15.09
2018-10-18T16:16:07.923Z,15.10
2018-10-18T16:18:35.086Z,15.14
2018-10-18T16:21:02.425Z,15.07
2018-10-18T16:23:29.579Z,14.97
2018-10-18T16:25:56.820Z,14.96
2018-10-18T16:28:23.935Z,14.97
2018-10-18T16:30:51.085Z,15.01
2018-10-18T16:33:18.474Z,14.97
2018-10-18T16:35:45.683Z,14.97
2018-10-18T16:38:12.900Z,15.06
2018-10-18T16:40:40.225Z,15.19
2018-10-18T16:43:07.657Z,15.07
2018-10-18T16:45:34.861Z,15.03
2018-10-18T16:48:02.487Z,14.93
2018-10-18T16:50:29.740Z,15.01
2018-10-18T16:52:56.963Z,14.99
2018-10-18T16:55:24.172Z,14.95
2018-10-18T16:57:51.449Z,15.04
2018-10-18T17:00:19.109Z,14.94
2018-10-18T17:02:46.582Z,15.00
2018-10-18T17:05:13.840Z,15.10
2018-10-18T17:07:40.987Z,15.04
2018-10-18T17:10:08.251Z,15.03
2018-10-18T17:12:35.365Z,15.10
2018-10-18T17:15:02.545Z,15.10
2018-10-18T17:17:30.566Z,15.15
2018-10-18T17:19:57.843Z,14.92
2018-10-18T17:22:24.979Z,14.93
2018-10-18T17:24:52.256Z,14.87
2018-10-18T17:27:20.043Z,14.79
2018-10-18T17:29:47.213Z,14.69
2018-10-18T17:32:15.004Z,14.63
2018-10-18T17:34:42.277Z,14.69
2018-10-18T17:37:09.491Z,14.51
2018-10-18T17:39:36.622Z,14.38
2018-10-18T17:42:04.149Z,14.41
2018-10-18T17:44:31.330Z,14.44
2018-10-18T17:46:58.516Z,14.43
2018-10-18T17:49:25.796Z,14.36
2018-10-18T17:51:53.064Z,14.36
2018-10-18T17:54:20.331Z,14.28
2018-10-18T17:56:47.557Z,14.33
2018-10-18T17:59:14.791Z,14.39
2018-10-18T18:01:42.082Z,14.36
2018-10-18T18:04:09.318Z,14.32
2018-10-18T18:06:36.588Z,14.30
2018-10-18T18:09:04.634Z,14.37
2018-10-18T18:11:31.882Z,14.29
2018-10-18T18:13:59.056Z,14.34
2018-10-18T18:16:26.344Z,14.33
2018-10-18T18:18:53.523Z,14.40
2018-10-18T18:21:20.658Z,14.29
2018-10-18T18:23:47.774Z,14.28
2018-10-18T18:26:15.057Z,14.37
2018-10-18T18:28:42.223Z,14.31
2018-10-18T18:31:09.410Z,14.38
2018-10-18T18:33:36.631Z,14.31
2018-10-18T18:36:04.161Z,14.30
2018-10-18T18:38:31.308Z,14.27
2018-10-18T18:40:58.490Z,14.23
2018-10-18T18:43:25.657Z,14.27
2018-10-18T18:45:53.834Z,14.17
2018-10-18T18:48:21.132Z,14.20
2018-10-18T18:50:48.380Z,14.12
2018-10-18T18:53:15.532Z,14.19
2018-10-18T18:55:42.719Z,14.18
2018-10-18T18:58:09.896Z,14.12
2018-10-18T19:00:37.058Z,14.13
2018-10-18T19:03:04.928Z,14.08
2018-10-18T19:05:31.985Z,14.11
2018-10-18T19:07:59.136Z,14.11
2018-10-18T19:10:26.324Z,14.15
2018-10-18T19:12:53.457Z,14.10
2018-10-18T19:15:20.705Z,14.17
2018-10-18T19:17:47.908Z,14.11
2018-10-18T19:20:15.068Z,14.09
2018-10-18T19:22:42.307Z,14.19
2018-10-18T19:25:09.549Z,14.13
2018-10-18T19:27:37.389Z,14.18
2018-10-18T19:30:06.376Z,14.16
2018-10-18T19:32:33.560Z,14.20
2018-10-18T19:35:01.378Z,14.20
2018-10-18T19:37:28.543Z,14.14
2018-10-18T19:39:55.914Z,14.22
2018-10-18T19:42:24.975Z,14.25
2018-10-18T19:44:52.454Z,14.18
2018-10-18T19:47:19.740Z,14.19
2018-10-18T19:49:46.905Z,14.20
2018-10-18T19:52:14.124Z,14.12
2018-10-18T19:54:42.509Z,14.15
2018-10-18T19:57:09.851Z,14.09
2018-10-18T19:59:37.920Z,14.01
2018-10-18T20:02:05.886Z,14.03
2018-10-18T20:04:34.117Z,14.02
2018-10-18T20:07:01.241Z,13.96
2018-10-18T20:09:28.538Z,14.04
2018-10-18T20:11:58.173Z,13.99
2018-10-18T20:14:26.330Z,14.03
2018-10-18T20:16:53.929Z,13.96
2018-10-18T20:19:21.073Z,14.02
2018-10-18T20:21:48.217Z,14.01
2018-10-18T20:24:15.438Z,13.93
2018-10-18T20:26:42.612Z,14.04
2018-10-18T20:29:09.835Z,14.01
2018-10-18T20:31:37.070Z,13.97
2018-10-18T20:34:04.585Z,13.98
2018-10-18T20:36:31.744Z,13.85
2018-10-18T20:38:59.011Z,13.84
2018-10-18T20:41:26.797Z,13.78
2018-10-18T20:43:54.144Z,13.92
2018-10-18T20:46:21.487Z,13.80
2018-10-18T20:48:48.620Z,13.80
2018-10-18T20:51:17.290Z,13.87
2018-10-18T20:53:44.548Z,13.84
2018-10-18T20:56:11.673Z,13.77
2018-10-18T20:58:39.181Z,13.81
2018-10-18T21:01:06.538Z,13.73
2018-10-18T21:03:33.676Z,13.88
2018-10-18T21:06:01.001Z,13.77
2018-10-18T21:08:28.636Z,13.75
2018-10-18T21:10:56.069Z,13.72
2018-10-18T21:13:23.340Z,13.87
2018-10-18T21:15:50.612Z,13.79
2018-10-18T21:18:17.761Z,13.78
2018-10-18T21:20:44.913Z,13.81
2018-10-18T21:23:12.247Z,13.78
2018-10-18T21:25:39.352Z,13.72
2018-10-18T21:28:06.498Z,13.86
2018-10-18T21:30:33.769Z,13.80
2018-10-18T21:33:00.978Z,13.84
2018-10-18T21:35:28.153Z,13.80
2018-10-18T21:37:55.314Z,13.79
2018-10-18T21:40:22.445Z,13.79
2018-10-18T21:42:49.591Z,13.88
2018-10-18T21:45:17.218Z,13.81
2018-10-18T21:47:44.329Z,13.77
2018-10-18T21:50:11.448Z,13.71
2018-10-18T21:52:38.611Z,13.92
2018-10-18T21:55:06.711Z,13.86
2018-10-18T21:57:33.885Z,13.81
2018-10-18T22:00:01.098Z,13.71
2018-10-18T22:02:28.227Z,13.69
2018-10-18T22:04:55.475Z,13.69
2018-10-18T22:07:22.872Z,13.77
2018-10-18T22:09:50.000Z,13.76
2018-10-18T22:12:17.166Z,13.72
2018-10-18T22:14:44.433Z,13.72
2018-10-18T22:17:11.700Z,13.66
2018-10-18T22:19:38.834Z,13.59
2018-10-18T22:22:06.100Z,13.65
2018-10-18T22:24:33.232Z,13.65
2018-10-18T22:27:00.479Z,13.74
2018-10-18T22:29:27.640Z,13.76
2018-10-18T22:31:54.779Z,13.68
2018-10-18T22:34:21.905Z,13.81
2018-10-18T22:36:49.238Z,13.66
2018-10-18T22:39:17.321Z,13.51
2018-10-18T22:41:44.452Z,13.55
2018-10-18T22:44:11.655Z,13.56
2018-10-18T22:46:38.798Z,13.54
2018-10-18T22:49:05.916Z,13.55
2018-10-18T22:51:33.105Z,13.51
2018-10-18T22:54:00.261Z,13.58
2018-10-18T22:56:27.432Z,13.41
2018-10-18T22:58:54.664Z,13.44
2018-10-18T23:01:21.781Z,13.40
2018-10-18T23:03:48.917Z,13.41
2018-10-18T23:06:16.115Z,13.48
2018-10-18T23:08:43.314Z,13.41
2018-10-18T23:11:10.493Z,13.41
2018-10-18T23:13:37.757Z,13.40
2018-10-18T23:16:04.946Z,13.32
2018-10-18T23:18:32.094Z,13.44
2018-10-18T23:20:59.313Z,13.32
2018-10-18T23:23:26.434Z,13.41
2018-10-18T23:25:53.568Z,13.32
2018-10-18T23:28:20.768Z,13.15
2018-10-18T23:30:47.909Z,13.35
2018-10-18T23:33:15.045Z,13.36
2018-10-18T23:35:42.224Z,13.30
2018-10-18T23:38:09.359Z,13.23
2018-10-18T23:40:36.473Z,13.16
2018-10-18T23:43:03.703Z,13.09
2018-10-18T23:45:30.827Z,13.13
2018-10-18T23:47:57.970Z,13.08
2018-10-18T23:50:25.164Z,13.15
2018-10-18T23:52:52.324Z,13.01
2018-10-18T23:55:19.476Z,12.92
2018-10-18T23:57:46.667Z,13.01
